createdAt,value
2023-04-28T00:00:52.771Z,101520.25
2023-04-28T00:03:19.475Z,101514.03
2023-04-28T00:05:46.912Z,101514.03
2023-04-28T00:08:13.574Z,101512.31
2023-04-28T00:10:40.291Z,101505.25
2023-04-28T00:13:06.821Z,101499.19
2023-04-28T00:15:33.330Z,101498.19
2023-04-28T00:17:59.890Z,101492.00
2023-04-28T00:20:26.397Z,101476.88
2023-04-28T00:22:52.979Z,101474.19
2023-04-28T00:25:19.504Z,101469.94
2023-04-28T00:27:46.040Z,101462.75
2023-04-28T00:30:12.709Z,101458.38
2023-04-28T00:32:39.309Z,101453.13
2023-04-28T00:35:06.987Z,101459.47
2023-04-28T00:37:36.889Z,101459.47
2023-04-28T00:40:03.828Z,101459.47
2023-04-28T00:42:30.585Z,101460.47
2023-04-28T00:44:57.733Z,101459.63
2023-04-28T00:47:24.591Z,101455.28
2023-04-28T00:49:52.169Z,101448.19
2023-04-28T00:52:18.675Z,101440.28
2023-04-28T00:54:47.677Z,101427.00
2023-04-28T00:57:14.160Z,101427.88
2023-04-28T00:59:40.744Z,101425.31
2023-04-28T01:02:07.837Z,101420.94
2023-04-28T01:04:36.115Z,101430.81
2023-04-28T01:07:03.959Z,101428.25
2023-04-28T01:09:30.520Z,101425.56
2023-04-28T01:11:58.391Z,101420.22
2023-04-28T01:14:26.120Z,101423.03
2023-04-28T01:16:53.724Z,101412.47
2023-04-28T01:19:24.882Z,101412.47
2023-04-28T01:21:51.652Z,101410.63
2023-04-28T01:24:18.871Z,101408.06
2023-04-28T01:26:46.279Z,101405.38
2023-04-28T01:29:12.933Z,101396.50
2023-04-28T01:31:39.855Z,101391.13
2023-04-28T01:34:06.507Z,101387.75
2023-04-28T01:36:35.939Z,101380.69
2023-04-28T01:39:04.526Z,101380.69
2023-04-28T01:41:31.170Z,101381.66
2023-04-28T01:43:57.767Z,101383.38
2023-04-28T01:46:24.413Z,101379.97
2023-04-28T01:48:50.965Z,101373.91
2023-04-28T01:51:17.586Z,101374.75
2023-04-28T01:53:44.115Z,101367.69
2023-04-28T01:56:10.647Z,101356.09
2023-04-28T01:58:37.219Z,101356.09
2023-04-28T02:01:03.865Z,101355.41
2023-04-28T02:03:30.618Z,101352.59
2023-04-28T02:05:57.269Z,101355.41
2023-04-28T02:08:23.843Z,101358.09
2023-04-28T02:10:50.860Z,101353.72
2023-04-28T02:13:17.542Z,101345.69
2023-04-28T02:15:44.388Z,101351.06
2023-04-28T02:18:11.309Z,101346.66
2023-04-28T02:20:37.884Z,101338.75
2023-04-28T02:23:04.453Z,101338.75
2023-04-28T02:25:31.035Z,101338.75
2023-04-28T02:27:57.747Z,101341.59
2023-04-28T02:30:24.273Z,101333.53
2023-04-28T02:32:51.354Z,101331.81
2023-04-28T02:35:18.088Z,101326.47
2023-04-28T02:37:44.678Z,101325.63
2023-04-28T02:40:11.607Z,101321.25
2023-04-28T02:42:38.182Z,101322.25
2023-04-28T02:45:05.645Z,101310.69
2023-04-28T02:47:32.200Z,101305.31
2023-04-28T02:49:58.784Z,101298.38
2023-04-28T02:52:25.292Z,101297.53
2023-04-28T02:54:54.639Z,101289.50
2023-04-28T02:57:21.269Z,101285.09
2023-04-28T02:59:47.793Z,101279.06
2023-04-28T03:02:14.751Z,101280.88
2023-04-28T03:04:41.630Z,101275.66
2023-04-28T03:07:08.441Z,101279.31
2023-04-28T03:09:34.986Z,101274.13
2023-04-28T03:12:03.349Z,101273.28
2023-04-28T03:14:29.927Z,101271.56
2023-04-28T03:16:57.921Z,101268.88
2023-04-28T03:19:24.506Z,101274.25
2023-04-28T03:21:51.131Z,101260.00
2023-04-28T03:24:17.947Z,101264.38
2023-04-28T03:26:44.809Z,101261.81
2023-04-28T03:29:11.464Z,101256.47
2023-04-28T03:31:38.023Z,101252.09
2023-04-28T03:34:04.739Z,101243.22
2023-04-28T03:36:32.091Z,101249.41
2023-04-28T03:38:58.621Z,101248.56
2023-04-28T03:41:25.178Z,101239.69
2023-04-28T03:43:53.331Z,101237.00
2023-04-28T03:46:19.890Z,101233.50
2023-04-28T03:48:46.578Z,101224.56
2023-04-28T03:51:13.265Z,101229.94
2023-04-28T03:53:39.821Z,101229.09
2023-04-28T03:56:07.004Z,101223.72
2023-04-28T03:58:33.551Z,101224.56
2023-04-28T04:01:00.936Z,101213.16
2023-04-28T04:03:27.911Z,101216.69
2023-04-28T04:05:55.669Z,101205.13
2023-04-28T04:08:22.408Z,101205.81
2023-04-28T04:10:48.918Z,101204.13
2023-04-28T04:13:15.463Z,101210.47
2023-04-28T04:15:42.046Z,101211.31
2023-04-28T04:18:08.753Z,101201.59
2023-04-28T04:20:35.342Z,101192.53
2023-04-28T04:23:02.008Z,101193.53
2023-04-28T04:25:28.613Z,101189.03
2023-04-28T04:27:55.492Z,101188.19
2023-04-28T04:30:22.196Z,101185.50
2023-04-28T04:32:48.901Z,101185.50
2023-04-28T04:35:15.727Z,101183.81
2023-04-28T04:37:42.203Z,101170.41
2023-04-28T04:40:09.287Z,101170.41
2023-04-28T04:42:35.984Z,101162.38
2023-04-28T04:45:02.633Z,101163.34
2023-04-28T04:47:29.214Z,101166.84
2023-04-28T04:49:56.562Z,101164.19
2023-04-28T04:52:23.622Z,101160.53
2023-04-28T04:54:50.154Z,101157.13
2023-04-28T04:57:16.733Z,101156.28
2023-04-28T04:59:43.472Z,101149.09
2023-04-28T05:02:10.094Z,101152.78
2023-04-28T05:04:36.794Z,101174.22
2023-04-28T05:07:03.388Z,101178.69
2023-04-28T05:09:30.656Z,101185.91
2023-04-28T05:11:57.872Z,101187.63
2023-04-28T05:14:24.422Z,101186.75
2023-04-28T05:16:51.233Z,101185.78
2023-04-28T05:19:17.849Z,101185.78
2023-04-28T05:21:44.405Z,101193.81
2023-04-28T05:24:11.197Z,101192.09
2023-04-28T05:26:37.752Z,101184.06
2023-04-28T05:29:04.286Z,101172.50
2023-04-28T05:31:30.929Z,101170.66
2023-04-28T05:33:57.473Z,101179.56
2023-04-28T05:36:24.231Z,101175.19
2023-04-28T05:38:50.934Z,101167.13
2023-04-28T05:41:17.517Z,101162.63
2023-04-28T05:43:44.072Z,101165.28
2023-04-28T05:46:28.366Z,101168.84
2023-04-28T05:48:56.539Z,101161.66
2023-04-28T05:51:23.225Z,101158.13
2023-04-28T05:53:49.778Z,101150.09
2023-04-28T05:56:17.120Z,101141.03
2023-04-28T05:58:48.050Z,101138.50
2023-04-28T06:01:14.645Z,101135.81
2023-04-28T06:03:42.047Z,101134.84
2023-04-28T06:06:10.962Z,101122.28
2023-04-28T06:08:38.619Z,101116.91
2023-04-28T06:11:06.019Z,101120.59
2023-04-28T06:13:32.739Z,101123.97
2023-04-28T06:15:59.515Z,101124.97
2023-04-28T06:18:27.092Z,101118.75
2023-04-28T06:20:53.702Z,101122.28
2023-04-28T06:23:20.314Z,101130.31
2023-04-28T06:25:46.968Z,101132.00
2023-04-28T06:28:14.901Z,101132.00
2023-04-28T06:30:41.644Z,101137.38
2023-04-28T06:33:08.459Z,101135.69
2023-04-28T06:35:36.471Z,101132.00
2023-04-28T06:38:04.617Z,101125.81
2023-04-28T06:40:31.710Z,101123.97
2023-04-28T06:42:58.337Z,101122.16
2023-04-28T06:45:24.911Z,101119.47
2023-04-28T06:47:51.793Z,101124.84
2023-04-28T06:50:18.290Z,101130.19
2023-04-28T06:52:44.867Z,101122.16
2023-04-28T06:55:15.413Z,101131.03
2023-04-28T06:57:42.502Z,101130.03
2023-04-28T07:00:10.411Z,101131.72
2023-04-28T07:02:37.270Z,101127.19
2023-04-28T07:05:04.518Z,101133.41
2023-04-28T07:07:31.431Z,101110.28
2023-04-28T07:09:58.994Z,101113.78
2023-04-28T07:12:25.546Z,101129.75
2023-04-28T07:14:52.140Z,101124.41
2023-04-28T07:17:18.790Z,101111.84
2023-04-28T07:19:45.620Z,101118.88
2023-04-28T07:22:12.177Z,101117.03
2023-04-28T07:24:39.307Z,101115.19
2023-04-28T07:27:06.179Z,101104.34
2023-04-28T07:29:35.043Z,101111.38
2023-04-28T07:32:05.268Z,101119.44
2023-04-28T07:34:33.311Z,101118.44
2023-04-28T07:36:59.826Z,101112.22
2023-04-28T07:39:26.440Z,101124.63
2023-04-28T07:41:52.955Z,101113.91
2023-04-28T07:44:20.572Z,101106.72
2023-04-28T07:46:47.276Z,101118.44
2023-04-28T07:49:13.856Z,101125.47
2023-04-28T07:51:40.618Z,101117.31
2023-04-28T07:54:07.237Z,101127.19
2023-04-28T07:56:33.776Z,101114.63
2023-04-28T07:59:00.472Z,101115.63
2023-04-28T08:01:27.076Z,101123.66
2023-04-28T08:03:53.832Z,101123.66
2023-04-28T08:06:20.672Z,101114.75
2023-04-28T08:08:47.237Z,101108.41
2023-04-28T08:11:13.738Z,101095.84
2023-04-28T08:13:40.272Z,101096.69
2023-04-28T08:16:06.972Z,101101.06
2023-04-28T08:18:33.909Z,101098.38
2023-04-28T08:21:00.676Z,101097.38
2023-04-28T08:23:28.463Z,101100.78
2023-04-28T08:25:55.283Z,101100.63
2023-04-28T08:28:21.817Z,101103.16
2023-04-28T08:30:48.673Z,101105.84
2023-04-28T08:33:15.306Z,101103.16
2023-04-28T08:35:41.900Z,101104.00
2023-04-28T08:38:13.790Z,101107.38
2023-04-28T08:40:42.653Z,101110.94
2023-04-28T08:43:13.693Z,101107.25
2023-04-28T08:45:45.410Z,101113.44
2023-04-28T08:48:19.271Z,101115.28
2023-04-28T08:50:53.363Z,101107.25
2023-04-28T08:53:26.945Z,101100.88
2023-04-28T08:55:58.054Z,101100.88
2023-04-28T08:58:28.448Z,101097.19
2023-04-28T09:00:55.065Z,101100.72
2023-04-28T09:03:22.100Z,101089.16
2023-04-28T09:05:49.242Z,101097.19
2023-04-28T09:08:15.982Z,101092.69
2023-04-28T09:10:42.780Z,101095.34
2023-04-28T09:13:09.678Z,101098.91
2023-04-28T09:15:38.189Z,101088.19
2023-04-28T09:18:06.920Z,101099.88
2023-04-28T09:20:35.656Z,101097.91
2023-04-28T09:23:17.938Z,101090.88
2023-04-28T09:25:57.613Z,101095.22
2023-04-28T09:28:24.214Z,101094.22
2023-04-28T09:30:50.800Z,101089.72
2023-04-28T09:33:17.638Z,101092.25
2023-04-28T09:35:48.450Z,101087.72
2023-04-28T09:38:16.294Z,101081.53
2023-04-28T09:40:54.701Z,101076.16
2023-04-28T09:43:34.431Z,101080.53
2023-04-28T09:46:04.578Z,101080.38
2023-04-28T09:48:38.447Z,101077.69
2023-04-28T09:51:06.852Z,101085.59
2023-04-28T09:53:35.544Z,101078.41
2023-04-28T09:56:05.166Z,101082.91
2023-04-28T09:58:34.292Z,101081.91
2023-04-28T10:01:03.996Z,101080.09
2023-04-28T10:03:31.269Z,101075.56
2023-04-28T10:05:59.215Z,101078.25
2023-04-28T10:08:27.580Z,101073.72
2023-04-28T10:10:55.582Z,101078.06
2023-04-28T10:13:22.889Z,101084.31
2023-04-28T10:15:50.917Z,101086.13
2023-04-28T10:18:18.444Z,101088.81
2023-04-28T10:20:50.903Z,101078.06
2023-04-28T10:23:46.916Z,101080.91
2023-04-28T10:26:15.544Z,101080.63
2023-04-28T10:28:47.368Z,101083.44
2023-04-28T10:31:20.817Z,101089.69
2023-04-28T10:33:48.014Z,101084.31
2023-04-28T10:36:54.937Z,101079.91
2023-04-28T10:39:21.516Z,101083.31
2023-04-28T10:41:49.067Z,101077.94
2023-04-28T10:44:31.064Z,101076.09
2023-04-28T10:47:06.596Z,101081.19
2023-04-28T10:50:11.981Z,101082.03
2023-04-28T10:52:38.816Z,101080.84
2023-04-28T10:55:27.019Z,101083.41
2023-04-28T10:58:15.501Z,101079.59
2023-04-28T11:00:43.080Z,101069.38
2023-04-28T11:03:10.064Z,101075.47
2023-04-28T11:05:37.072Z,101074.31
2023-04-28T11:08:19.018Z,101075.00
2023-04-28T11:11:10.072Z,101072.03
2023-04-28T11:13:36.729Z,101069.88
2023-04-28T11:16:06.928Z,101062.50
2023-04-28T11:18:56.120Z,101058.53
2023-04-28T11:21:24.486Z,101058.25
2023-04-28T11:23:51.275Z,101064.16
2023-04-28T11:26:19.354Z,101067.50
2023-04-28T11:28:54.812Z,101069.91
2023-04-28T11:31:26.293Z,101065.06
2023-04-28T11:34:00.859Z,101068.59
2023-04-28T11:36:33.608Z,101072.84
2023-04-28T11:39:00.493Z,101064.63
2023-04-28T11:41:27.180Z,101074.25
2023-04-28T11:43:54.148Z,101073.94
2023-04-28T11:46:23.741Z,101074.63
2023-04-28T11:49:04.519Z,101076.00
2023-04-28T11:51:36.275Z,101074.53
2023-04-28T11:54:03.591Z,101081.81
2023-04-28T11:56:30.633Z,101084.75
2023-04-28T11:59:03.301Z,101076.94
2023-04-28T12:01:31.343Z,101078.13
2023-04-28T12:03:57.970Z,101076.81
2023-04-28T12:06:25.185Z,101078.38
2023-04-28T12:08:52.665Z,101079.75
2023-04-28T12:11:21.898Z,101084.81
2023-04-28T12:14:06.277Z,101087.16
2023-04-28T12:16:43.389Z,101092.41
2023-04-28T12:19:11.290Z,101085.84
2023-04-28T12:21:39.722Z,101085.72
2023-04-28T12:24:21.298Z,101098.16
2023-04-28T12:26:48.968Z,101088.94
2023-04-28T12:29:41.761Z,101092.28
2023-04-28T12:32:11.106Z,101097.38
2023-04-28T12:34:39.843Z,101093.66
2023-04-28T12:37:07.008Z,101101.56
2023-04-28T12:39:37.126Z,101104.78
2023-04-28T12:42:06.197Z,101099.28
2023-04-28T12:44:37.884Z,101100.66
2023-04-28T12:47:06.451Z,101095.94
2023-04-28T12:49:34.785Z,101102.06
2023-04-28T12:52:01.695Z,101098.53
2023-04-28T12:54:28.373Z,101098.34
2023-04-28T12:56:55.182Z,101091.13
2023-04-28T12:59:22.481Z,101098.03
2023-04-28T13:01:50.398Z,101103.94
2023-04-28T13:04:18.617Z,101104.78
2023-04-28T13:06:45.544Z,101109.00
2023-04-28T13:09:12.420Z,101112.38
2023-04-28T13:11:39.451Z,101112.06
2023-04-28T13:14:06.383Z,101115.44
2023-04-28T13:16:33.873Z,101111.72
2023-04-28T13:19:06.327Z,101117.81
2023-04-28T13:21:33.159Z,101112.25
2023-04-28T13:23:59.649Z,101113.97
2023-04-28T13:26:26.893Z,101121.03
2023-04-28T13:28:53.551Z,101122.72
2023-04-28T13:31:20.533Z,101118.16
2023-04-28T13:33:47.401Z,101117.16
2023-04-28T13:36:14.129Z,101123.41
2023-04-28T13:38:40.717Z,101124.06
2023-04-28T13:41:07.696Z,101130.28
2023-04-28T13:43:34.256Z,101132.84
2023-04-28T13:46:01.674Z,101130.16
2023-04-28T13:48:29.177Z,101139.91
2023-04-28T13:50:56.014Z,101128.97
2023-04-28T13:53:22.719Z,101123.47
2023-04-28T13:55:51.080Z,101133.88
2023-04-28T13:58:17.636Z,101123.97
2023-04-28T14:00:44.194Z,101122.97
2023-04-28T14:03:11.634Z,101122.78
2023-04-28T14:05:46.135Z,101123.63
2023-04-28T14:08:19.315Z,101122.66
2023-04-28T14:10:48.033Z,101126.19
2023-04-28T14:13:14.634Z,101127.88
2023-04-28T14:15:51.250Z,101129.72
2023-04-28T14:18:24.392Z,101136.13
2023-04-28T14:20:50.973Z,101141.50
2023-04-28T14:23:17.606Z,101124.47
2023-04-28T14:25:44.283Z,101138.81
2023-04-28T14:28:11.324Z,101137.94
2023-04-28T14:30:38.021Z,101136.13
2023-04-28T14:33:04.741Z,101138.94
2023-04-28T14:35:32.425Z,101140.25
2023-04-28T14:37:59.092Z,101140.56
2023-04-28T14:40:25.795Z,101146.13
2023-04-28T14:42:52.915Z,101144.75
2023-04-28T14:45:19.603Z,101141.38
2023-04-28T14:47:46.268Z,101146.09
2023-04-28T14:50:14.203Z,101145.38
2023-04-28T14:52:41.258Z,101142.03
2023-04-28T14:55:08.430Z,101142.19
2023-04-28T14:57:35.260Z,101151.41
2023-04-28T15:00:03.983Z,101138.97
2023-04-28T15:02:31.231Z,101143.50
2023-04-28T15:04:58.452Z,101141.78
2023-04-28T15:07:30.962Z,101149.88
2023-04-28T15:09:59.443Z,101147.34
2023-04-28T15:12:26.312Z,101151.72
2023-04-28T15:14:53.917Z,101149.88
2023-04-28T15:17:21.416Z,101149.72
2023-04-28T15:19:48.026Z,101159.66
2023-04-28T15:22:14.740Z,101149.88
2023-04-28T15:24:41.303Z,101149.88
2023-04-28T15:27:07.958Z,101151.72
2023-04-28T15:29:34.529Z,101151.72
2023-04-28T15:32:01.431Z,101152.91
2023-04-28T15:34:28.621Z,101154.72
2023-04-28T15:36:55.150Z,101158.28
2023-04-28T15:39:21.878Z,101153.72
2023-04-28T15:41:48.454Z,101157.09
2023-04-28T15:44:15.428Z,101162.16
2023-04-28T15:46:42.055Z,101170.59
2023-04-28T15:49:08.976Z,101162.22
2023-04-28T15:51:35.491Z,101161.06
2023-04-28T15:54:02.064Z,101159.88
2023-04-28T15:56:28.706Z,101161.44
2023-04-28T15:58:55.446Z,101164.78
2023-04-28T16:01:22.539Z,101172.72
2023-04-28T16:03:49.365Z,101169.88
2023-04-28T16:06:16.057Z,101170.69
2023-04-28T16:08:43.041Z,101167.03
2023-04-28T16:11:11.379Z,101173.09
2023-04-28T16:13:37.915Z,101171.22
2023-04-28T16:16:04.757Z,101183.69
2023-04-28T16:18:31.700Z,101180.00
2023-04-28T16:20:58.373Z,101183.53
2023-04-28T16:23:24.914Z,101185.22
2023-04-28T16:25:51.596Z,101198.50
2023-04-28T16:28:18.204Z,101195.97
2023-04-28T16:30:44.862Z,101189.59
2023-04-28T16:33:11.827Z,101199.38
2023-04-28T16:35:38.382Z,101196.69
2023-04-28T16:38:05.111Z,101201.06
2023-04-28T16:40:31.621Z,101198.38
2023-04-28T16:42:58.195Z,101205.59
2023-04-28T16:45:24.727Z,101205.44
2023-04-28T16:47:51.694Z,101205.44
2023-04-28T16:50:18.301Z,101202.72
2023-04-28T16:52:45.013Z,101206.25
2023-04-28T16:55:11.761Z,101212.50
2023-04-28T16:57:38.413Z,101217.03
2023-04-28T17:00:06.265Z,101212.50
2023-04-28T17:02:34.567Z,101217.88
2023-04-28T17:05:01.293Z,101221.41
2023-04-28T17:07:27.900Z,101217.88
2023-04-28T17:09:54.548Z,101223.25
2023-04-28T17:12:23.228Z,101224.09
2023-04-28T17:14:51.134Z,101234.84
2023-04-28T17:17:18.127Z,101235.72
2023-04-28T17:19:44.670Z,101227.66
2023-04-28T17:22:11.794Z,101235.72
2023-04-28T17:24:38.344Z,101243.81
2023-04-28T17:27:04.902Z,101235.88
2023-04-28T17:29:31.852Z,101244.78
2023-04-28T17:31:58.419Z,101242.09
2023-04-28T17:34:25.124Z,101239.41
2023-04-28T17:36:51.663Z,101252.84
2023-04-28T17:39:18.235Z,101258.25
2023-04-28T17:41:45.221Z,101253.69
2023-04-28T17:44:11.904Z,101262.66
2023-04-28T17:46:38.578Z,101254.56
2023-04-28T17:49:05.409Z,101262.47
2023-04-28T17:51:32.534Z,101252.53
2023-04-28T17:53:59.450Z,101259.47
2023-04-28T17:56:26.376Z,101253.91
2023-04-28T17:58:52.925Z,101258.16
2023-04-28T18:01:19.763Z,101268.75
2023-04-28T18:03:46.744Z,101264.91
2023-04-28T18:06:13.845Z,101267.44
2023-04-28T18:08:40.989Z,101273.53
2023-04-28T18:11:09.980Z,101268.97
2023-04-28T18:13:36.812Z,101278.56
2023-04-28T18:16:05.062Z,101281.13
2023-04-28T18:18:34.868Z,101280.28
2023-04-28T18:21:02.749Z,101275.56
2023-04-28T18:23:30.507Z,101283.50
2023-04-28T18:25:57.192Z,101281.66
2023-04-28T18:28:23.801Z,101284.16
2023-04-28T18:30:50.692Z,101286.69
2023-04-28T18:33:22.997Z,101286.69
2023-04-28T18:35:58.690Z,101293.94
2023-04-28T18:38:26.070Z,101294.94
2023-04-28T18:40:52.613Z,101295.94
2023-04-28T18:43:19.181Z,101294.28
2023-04-28T18:45:45.850Z,101296.09
2023-04-28T18:48:12.505Z,101299.78
2023-04-28T18:50:39.359Z,101298.13
2023-04-28T18:53:06.542Z,101307.19
2023-04-28T18:55:33.586Z,101305.47
2023-04-28T18:58:01.934Z,101304.66
2023-04-28T19:00:28.786Z,101302.13
2023-04-28T19:02:55.687Z,101303.81
2023-04-28T19:05:22.700Z,101305.81
2023-04-28T19:07:49.251Z,101310.38
2023-04-28T19:10:15.857Z,101313.19
2023-04-28T19:12:42.388Z,101323.97
2023-04-28T19:15:09.329Z,101330.34
2023-04-28T19:17:35.997Z,101335.91
2023-04-28T19:20:03.996Z,101339.44
2023-04-28T19:22:40.177Z,101342.28
2023-04-28T19:25:07.862Z,101339.75
2023-04-28T19:27:37.026Z,101340.75
2023-04-28T19:30:05.165Z,101353.34
2023-04-28T19:32:31.754Z,101358.91
2023-04-28T19:34:58.360Z,101368.81
2023-04-28T19:37:25.743Z,101355.53
2023-04-28T19:39:52.440Z,101363.75
2023-04-28T19:42:19.469Z,101370.81
2023-04-28T19:44:47.265Z,101370.97
2023-04-28T19:47:14.599Z,101376.53
2023-04-28T19:49:42.144Z,101372.13
2023-04-28T19:52:10.302Z,101373.13
2023-04-28T19:54:39.724Z,101375.13
2023-04-28T19:57:06.315Z,101381.38
2023-04-28T19:59:33.766Z,101383.34
2023-04-28T20:02:00.458Z,101392.25
2023-04-28T20:04:29.070Z,101388.91
2023-04-28T20:06:56.104Z,101396.13
2023-04-28T20:09:22.735Z,101393.56
2023-04-28T20:11:49.507Z,101400.81
2023-04-28T20:14:16.132Z,101405.34
2023-04-28T20:16:43.339Z,101401.97
2023-04-28T20:19:09.866Z,101421.66
2023-04-28T20:21:37.289Z,101415.56
2023-04-28T20:24:03.871Z,101420.09
2023-04-28T20:26:31.200Z,101418.41
2023-04-28T20:28:58.865Z,101418.41
2023-04-28T20:31:25.632Z,101420.56
2023-04-28T20:33:52.536Z,101426.41
2023-04-28T20:36:19.109Z,101430.22
2023-04-28T20:38:45.983Z,101437.47
2023-04-28T20:41:12.648Z,101437.47
2023-04-28T20:43:39.218Z,101444.69
2023-04-28T20:46:16.581Z,101444.69
2023-04-28T20:48:43.157Z,101454.59
2023-04-28T20:51:11.005Z,101461.69
2023-04-28T20:53:39.535Z,101467.91
2023-04-28T20:56:06.848Z,101468.91
2023-04-28T20:58:33.415Z,101476.25
2023-04-28T21:01:00.031Z,101473.56
2023-04-28T21:03:26.820Z,101474.75
2023-04-28T21:05:53.551Z,101480.97
2023-04-28T21:08:20.131Z,101482.94
2023-04-28T21:10:46.672Z,101478.56
2023-04-28T21:13:13.257Z,101479.56
2023-04-28T21:15:40.700Z,101476.88
2023-04-28T21:18:07.673Z,101484.94
2023-04-28T21:20:34.336Z,101488.63
2023-04-28T21:23:00.926Z,101483.94
2023-04-28T21:25:28.089Z,101492.00
2023-04-28T21:27:55.298Z,101492.72
2023-04-28T21:30:22.221Z,101492.56
2023-04-28T21:32:48.821Z,101492.41
2023-04-28T21:35:16.334Z,101491.44
2023-04-28T21:37:43.014Z,101496.50
2023-04-28T21:40:09.972Z,101500.72
2023-04-28T21:42:36.497Z,101503.28
2023-04-28T21:45:03.341Z,101507.66
2023-04-28T21:47:30.080Z,101508.34
2023-04-28T21:49:56.962Z,101505.53
2023-04-28T21:52:23.541Z,101508.06
2023-04-28T21:54:50.113Z,101507.88
2023-04-28T21:57:16.833Z,101508.59
2023-04-28T21:59:44.040Z,101511.13
2023-04-28T22:02:11.532Z,101521.91
2023-04-28T22:04:38.713Z,101520.75
2023-04-28T22:07:05.772Z,101521.59
2023-04-28T22:09:33.417Z,101526.81
2023-04-28T22:11:59.995Z,101527.69
2023-04-28T22:14:40.516Z,101526.69
2023-04-28T22:17:08.058Z,101531.78
2023-04-28T22:19:34.591Z,101522.69
2023-04-28T22:22:01.260Z,101525.22
2023-04-28T22:24:27.910Z,101518.84
2023-04-28T22:26:55.112Z,101533.00
2023-04-28T22:29:21.819Z,101532.00
2023-04-28T22:31:48.778Z,101535.53
2023-04-28T22:34:16.421Z,101536.25
2023-04-28T22:36:43.018Z,101540.63
2023-04-28T22:39:09.527Z,101537.81
2023-04-28T22:41:36.098Z,101537.63
2023-04-28T22:44:02.709Z,101542.03
2023-04-28T22:46:30.203Z,101542.03
2023-04-28T22:48:56.814Z,101541.00
2023-04-28T22:51:23.900Z,101548.13
2023-04-28T22:53:50.735Z,101548.13
2023-04-28T22:56:17.235Z,101548.97
2023-04-28T22:58:44.552Z,101552.66
2023-04-28T23:01:11.601Z,101548.25
2023-04-28T23:03:38.796Z,101553.78
2023-04-28T23:06:06.624Z,101553.63
2023-04-28T23:08:35.135Z,101556.19
2023-04-28T23:11:05.443Z,101557.88
2023-04-28T23:13:32.119Z,101554.34
2023-04-28T23:16:02.495Z,101564.94
2023-04-28T23:18:31.651Z,101562.25
2023-04-28T23:20:58.572Z,101562.25
2023-04-28T23:23:25.137Z,101560.56
2023-04-28T23:25:52.043Z,101577.56
2023-04-28T23:28:18.935Z,101582.94
2023-04-28T23:30:45.455Z,101584.81
2023-04-28T23:33:11.978Z,101583.13
2023-04-28T23:35:38.532Z,101580.41
2023-04-28T23:38:05.020Z,101584.97
2023-04-28T23:40:31.527Z,101589.47
2023-04-28T23:42:58.150Z,101590.63
2023-04-28T23:45:25.328Z,101595.19
2023-04-28T23:47:53.329Z,101595.31
2023-04-28T23:50:19.960Z,101588.41
2023-04-28T23:52:47.162Z,101593.91
2023-04-28T23:55:13.720Z,101601.16
2023-04-28T23:57:40.665Z,101603.16
